sensor_id;sensor_type;location;lat;lon;timestamp;pressure;altitude;pressure_sealevel;temperature;humidity
78223;BME280;67497;53.058;21.618;2023-04-03T00:01:56;101037.53;;;19.12;47.73
78223;BME280;67497;53.058;21.618;2023-04-03T00:03:56;101043.28;;;19.10;47.62
78223;BME280;67497;53.058;21.618;2023-04-03T00:05:57;101056.31;;;19.10;47.73
78223;BME280;67497;53.058;21.618;2023-04-03T00:07:58;101050.97;;;19.08;47.74
78223;BME280;67497;53.058;21.618;2023-04-03T00:09:58;101058.41;;;19.08;47.73
78223;BME280;67497;53.058;21.618;2023-04-03T00:11:59;101056.69;;;19.07;47.72
78223;BME280;67497;53.058;21.618;2023-04-03T00:14:00;101057.94;;;19.04;47.73
78223;BME280;67497;53.058;21.618;2023-04-03T00:16:00;101060.91;;;19.03;47.92
78223;BME280;67497;53.058;21.618;2023-04-03T00:18:02;101069.03;;;19.04;47.93
78223;BME280;67497;53.058;21.618;2023-04-03T00:20:03;101063.84;;;19.01;47.68
78223;BME280;67497;53.058;21.618;2023-04-03T00:22:04;101073.22;;;19.00;47.82
78223;BME280;67497;53.058;21.618;2023-04-03T00:24:05;101066.16;;;18.98;47.66
78223;BME280;67497;53.058;21.618;2023-04-03T00:26:06;101071.03;;;18.96;47.64
78223;BME280;67497;53.058;21.618;2023-04-03T00:28:06;101074.88;;;18.95;47.85
78223;BME280;67497;53.058;21.618;2023-04-03T00:30:08;101076.78;;;18.94;47.60
78223;BME280;67497;53.058;21.618;2023-04-03T00:32:10;101067.97;;;18.91;47.76
78223;BME280;67497;53.058;21.618;2023-04-03T00:34:11;101070.94;;;18.89;47.65
78223;BME280;67497;53.058;21.618;2023-04-03T00:36:12;101081.19;;;18.89;47.78
78223;BME280;67497;53.058;21.618;2023-04-03T00:38:13;101076.00;;;18.86;47.65
78223;BME280;67497;53.058;21.618;2023-04-03T00:40:15;101076.00;;;18.86;47.80
78223;BME280;67497;53.058;21.618;2023-04-03T00:42:16;101081.94;;;18.83;48.08
78223;BME280;67497;53.058;21.618;2023-04-03T00:45:14;101078.66;;;18.79;47.69
78223;BME280;67497;53.058;21.618;2023-04-03T00:46:42;101076.09;;;18.78;47.66
78223;BME280;67497;53.058;21.618;2023-04-03T00:48:44;101075.41;;;18.76;47.76
78223;BME280;67497;53.058;21.618;2023-04-03T00:50:46;101072.81;;;18.74;47.87
78223;BME280;67497;53.058;21.618;2023-04-03T00:52:47;101078.34;;;18.74;48.02
78223;BME280;67497;53.058;21.618;2023-04-03T00:54:50;101079.44;;;18.73;47.85
78223;BME280;67497;53.058;21.618;2023-04-03T00:56:53;101082.38;;;18.72;47.86
78223;BME280;67497;53.058;21.618;2023-04-03T00:59:02;101076.91;;;18.64;47.78
78223;BME280;67497;53.058;21.618;2023-04-03T01:01:07;101070.09;;;18.66;47.91
78223;BME280;67497;53.058;21.618;2023-04-03T01:03:08;101078.25;;;18.68;47.87
78223;BME280;67497;53.058;21.618;2023-04-03T01:05:09;101074.13;;;18.64;47.78
78223;BME280;67497;53.058;21.618;2023-04-03T01:09:15;101073.47;;;18.62;47.89
78223;BME280;67497;53.058;21.618;2023-04-03T01:11:16;101083.50;;;18.63;47.99
78223;BME280;67497;53.058;21.618;2023-04-03T01:13:26;101082.81;;;18.61;47.88
78223;BME280;67497;53.058;21.618;2023-04-03T01:15:27;101080.91;;;18.61;47.94
78223;BME280;67497;53.058;21.618;2023-04-03T01:17:48;101090.09;;;18.62;47.97
78223;BME280;67497;53.058;21.618;2023-04-03T01:20:02;101094.28;;;18.58;48.16
78223;BME280;67497;53.058;21.618;2023-04-03T01:22:26;101097.06;;;18.58;47.96
78223;BME280;67497;53.058;21.618;2023-04-03T01:24:36;101107.13;;;18.59;47.86
78223;BME280;67497;53.058;21.618;2023-04-03T01:26:39;101107.50;;;18.56;47.73
78223;BME280;67497;53.058;21.618;2023-04-03T01:28:39;101101.06;;;18.55;47.99
78223;BME280;67497;53.058;21.618;2023-04-03T01:33:05;101104.41;;;18.50;47.93
78223;BME280;67497;53.058;21.618;2023-04-03T01:35:08;101106.16;;;18.52;48.14
78223;BME280;67497;53.058;21.618;2023-04-03T01:37:09;101102.00;;;18.47;47.83
78223;BME280;67497;53.058;21.618;2023-04-03T01:39:10;101105.31;;;18.43;47.95
78223;BME280;67497;53.058;21.618;2023-04-03T01:41:10;101108.56;;;18.46;47.76
78223;BME280;67497;53.058;21.618;2023-04-03T01:43:11;101105.13;;;18.44;47.82
78223;BME280;67497;53.058;21.618;2023-04-03T01:45:12;101105.13;;;18.44;47.93
78223;BME280;67497;53.058;21.618;2023-04-03T01:47:12;101110.00;;;18.42;47.91
78223;BME280;67497;53.058;21.618;2023-04-03T01:49:13;101100.31;;;18.38;47.79
78223;BME280;67497;53.058;21.618;2023-04-03T01:51:13;101115.03;;;18.39;47.82
78223;BME280;67497;53.058;21.618;2023-04-03T01:53:14;101115.03;;;18.39;47.98
78223;BME280;67497;53.058;21.618;2023-04-03T01:55:14;101115.25;;;18.37;47.79
78223;BME280;67497;53.058;21.618;2023-04-03T01:57:15;101108.31;;;18.33;47.84
78223;BME280;67497;53.058;21.618;2023-04-03T01:59:16;101119.41;;;18.33;47.91
78223;BME280;67497;53.058;21.618;2023-04-03T02:01:18;101119.78;;;18.30;47.89
78223;BME280;67497;53.058;21.618;2023-04-03T02:03:18;101130.50;;;18.33;47.94
78223;BME280;67497;53.058;21.618;2023-04-03T02:05:20;101125.31;;;18.30;47.84
78223;BME280;67497;53.058;21.618;2023-04-03T02:07:20;101133.66;;;18.30;47.80
78223;BME280;67497;53.058;21.618;2023-04-03T02:09:21;101132.09;;;18.28;47.91
78223;BME280;67497;53.058;21.618;2023-04-03T02:11:22;101139.19;;;18.30;47.89
78223;BME280;67497;53.058;21.618;2023-04-03T02:13:22;101136.81;;;18.27;47.86
78223;BME280;67497;53.058;21.618;2023-04-03T02:15:23;101138.88;;;18.25;47.75
78223;BME280;67497;53.058;21.618;2023-04-03T02:17:23;101135.25;;;18.25;47.88
78223;BME280;67497;53.058;21.618;2023-04-03T02:19:24;101138.03;;;18.25;48.09
78223;BME280;67497;53.058;21.618;2023-04-03T02:21:24;101141.00;;;18.23;48.02
78223;BME280;67497;53.058;21.618;2023-04-03T02:23:25;101148.28;;;18.24;48.04
78223;BME280;67497;53.058;21.618;2023-04-03T02:25:26;101137.34;;;18.23;48.19
78223;BME280;67497;53.058;21.618;2023-04-03T02:27:26;101146.53;;;18.23;48.22
78223;BME280;67497;53.058;21.618;2023-04-03T02:29:27;101143.97;;;18.22;48.05
78223;BME280;67497;53.058;21.618;2023-04-03T02:31:27;101148.63;;;18.21;48.01
78223;BME280;67497;53.058;21.618;2023-04-03T02:33:28;101133.59;;;18.16;47.99
78223;BME280;67497;53.058;21.618;2023-04-03T02:35:29;101142.41;;;18.19;47.75
78223;BME280;67497;53.058;21.618;2023-04-03T02:37:30;101145.56;;;18.16;47.75
78223;BME280;67497;53.058;21.618;2023-04-03T02:39:30;101130.16;;;18.14;47.83
78223;BME280;67497;53.058;21.618;2023-04-03T02:41:31;101149.00;;;18.18;47.84
78223;BME280;67497;53.058;21.618;2023-04-03T02:43:36;101150.91;;;18.18;47.69
78223;BME280;67497;53.058;21.618;2023-04-03T02:45:36;101160.44;;;18.15;47.73
78223;BME280;67497;53.058;21.618;2023-04-03T02:47:37;101150.59;;;18.13;47.76
78223;BME280;67497;53.058;21.618;2023-04-03T02:49:37;101147.81;;;18.13;47.91
78223;BME280;67497;53.058;21.618;2023-04-03T02:51:38;101157.00;;;18.13;47.91
78223;BME280;67497;53.058;21.618;2023-04-03T02:53:38;101153.91;;;18.08;47.81
78223;BME280;67497;53.058;21.618;2023-04-03T02:55:39;101147.66;;;18.06;47.84
78223;BME280;67497;53.058;21.618;2023-04-03T02:57:40;101149.75;;;18.04;47.84
78223;BME280;67497;53.058;21.618;2023-04-03T02:59:40;101150.78;;;18.03;47.83
78223;BME280;67497;53.058;21.618;2023-04-03T03:01:41;101158.09;;;18.04;47.87
78223;BME280;67497;53.058;21.618;2023-04-03T03:03:41;101154.63;;;18.02;47.86
78223;BME280;67497;53.058;21.618;2023-04-03T03:05:42;101155.66;;;18.01;47.72
78223;BME280;67497;53.058;21.618;2023-04-03T03:07:42;101152.22;;;17.99;47.83
78223;BME280;67497;53.058;21.618;2023-04-03T03:09:43;101148.56;;;17.99;47.88
78223;BME280;67497;53.058;21.618;2023-04-03T03:11:43;101161.41;;;18.00;47.52
78223;BME280;67497;53.058;21.618;2023-04-03T03:13:44;101153.25;;;17.98;47.98
78223;BME280;67497;53.058;21.618;2023-04-03T03:15:45;101154.13;;;17.99;47.84
78223;BME280;67497;53.058;21.618;2023-04-03T03:17:45;101149.66;;;17.98;47.69
78223;BME280;67497;53.058;21.618;2023-04-03T03:19:46;101160.72;;;17.98;47.82
78223;BME280;67497;53.058;21.618;2023-04-03T03:21:47;101154.13;;;17.99;47.71
78223;BME280;67497;53.058;21.618;2023-04-03T03:23:47;101156.03;;;17.98;47.83
78223;BME280;67497;53.058;21.618;2023-04-03T03:25:48;101153.63;;;17.95;47.87
78223;BME280;67497;53.058;21.618;2023-04-03T03:27:48;101161.75;;;17.97;47.76
78223;BME280;67497;53.058;21.618;2023-04-03T03:29:49;101150.00;;;17.95;47.64
78223;BME280;67497;53.058;21.618;2023-04-03T03:31:49;101158.13;;;17.96;47.82
78223;BME280;67497;53.058;21.618;2023-04-03T03:33:50;101159.88;;;17.97;47.58
78223;BME280;67497;53.058;21.618;2023-04-03T03:35:52;101161.75;;;17.97;47.71
78223;BME280;67497;53.058;21.618;2023-04-03T03:37:53;101161.56;;;17.98;47.54
78223;BME280;67497;53.058;21.618;2023-04-03T03:39:53;101165.56;;;17.96;47.77
78223;BME280;67497;53.058;21.618;2023-04-03T03:41:54;101158.47;;;17.93;47.66
78223;BME280;67497;53.058;21.618;2023-04-03T03:43:54;101172.19;;;17.95;47.56
78223;BME280;67497;53.058;21.618;2023-04-03T03:45:55;101173.03;;;17.95;47.66
78223;BME280;67497;53.058;21.618;2023-04-03T03:47:56;101179.28;;;17.97;47.61
78223;BME280;67497;53.058;21.618;2023-04-03T03:49:56;101163.00;;;17.94;47.71
78223;BME280;67497;53.058;21.618;2023-04-03T03:51:57;101167.66;;;17.93;47.58
78223;BME280;67497;53.058;21.618;2023-04-03T03:53:57;101173.03;;;17.95;47.42
78223;BME280;67497;53.058;21.618;2023-04-03T03:55:58;101171.66;;;17.91;47.66
78223;BME280;67497;53.058;21.618;2023-04-03T03:57:58;101171.66;;;17.91;47.40
78223;BME280;67497;53.058;21.618;2023-04-03T04:00:00;101174.78;;;17.88;47.53
78223;BME280;67497;53.058;21.618;2023-04-03T04:02:00;101172.91;;;17.88;47.52
78223;BME280;67497;53.058;21.618;2023-04-03T04:04:01;101173.94;;;17.87;47.41
78223;BME280;67497;53.058;21.618;2023-04-03T04:06:01;101171.69;;;17.83;47.40
78223;BME280;67497;53.058;21.618;2023-04-03T04:08:02;101186.59;;;17.82;47.52
78223;BME280;67497;53.058;21.618;2023-04-03T04:10:03;101176.38;;;17.82;47.49
78223;BME280;67497;53.058;21.618;2023-04-03T04:12:03;101183.16;;;17.80;47.32
78223;BME280;67497;53.058;21.618;2023-04-03T04:14:04;101178.81;;;17.77;47.38
78223;BME280;67497;53.058;21.618;2023-04-03T04:16:05;101183.50;;;17.77;47.29
78223;BME280;67497;53.058;21.618;2023-04-03T04:18:06;101190.09;;;17.76;47.35
78223;BME280;67497;53.058;21.618;2023-04-03T04:20:07;101191.13;;;17.75;47.33
78223;BME280;67497;53.058;21.618;2023-04-03T04:22:07;101187.69;;;17.73;47.44
78223;BME280;67497;53.058;21.618;2023-04-03T04:24:08;101180.75;;;17.69;47.45
78223;BME280;67497;53.058;21.618;2023-04-03T04:26:09;101187.16;;;17.69;47.36
78223;BME280;67497;53.058;21.618;2023-04-03T04:28:10;101190.81;;;17.70;47.25
78223;BME280;67497;53.058;21.618;2023-04-03T04:30:10;101197.38;;;17.69;47.39
78223;BME280;67497;53.058;21.618;2023-04-03T04:32:11;101201.22;;;17.68;47.41
78223;BME280;67497;53.058;21.618;2023-04-03T04:34:12;101204.81;;;17.68;47.58
78223;BME280;67497;53.058;21.618;2023-04-03T04:36:15;101204.16;;;17.66;47.48
78223;BME280;67497;53.058;21.618;2023-04-03T04:38:16;101203.13;;;17.67;47.40
78223;BME280;67497;53.058;21.618;2023-04-03T04:40:17;101202.59;;;17.64;47.52
78223;BME280;67497;53.058;21.618;2023-04-03T04:42:18;101206.06;;;17.66;47.34
78223;BME280;67497;53.058;21.618;2023-04-03T04:44:18;101207.13;;;17.65;47.44
78223;BME280;67497;53.058;21.618;2023-04-03T04:46:19;101211.59;;;17.66;47.34
78223;BME280;67497;53.058;21.618;2023-04-03T04:48:19;101214.38;;;17.66;47.31
78223;BME280;67497;53.058;21.618;2023-04-03T04:50:20;101198.28;;;17.61;47.35
78223;BME280;67497;53.058;21.618;2023-04-03T04:52:21;101214.19;;;17.67;47.29
78223;BME280;67497;53.058;21.618;2023-04-03T04:54:21;101212.47;;;17.66;47.12
78223;BME280;67497;53.058;21.618;2023-04-03T04:56:22;101222.53;;;17.67;47.06
78223;BME280;67497;53.058;21.618;2023-04-03T04:58:22;101218.88;;;17.67;47.30
78223;BME280;67497;53.058;21.618;2023-04-03T05:00:23;101222.31;;;17.69;47.22
78223;BME280;67497;53.058;21.618;2023-04-03T05:02:23;101205.88;;;17.67;47.21
78223;BME280;67497;53.058;21.618;2023-04-03T05:04:24;101217.84;;;17.68;47.06
78223;BME280;67497;53.058;21.618;2023-04-03T05:06:25;101223.75;;;17.65;46.90
78223;BME280;67497;53.058;21.618;2023-04-03T05:08:25;101232.72;;;17.67;47.15
78223;BME280;67497;53.058;21.618;2023-04-03T05:10:26;101236.53;;;17.66;47.05
78223;BME280;67497;53.058;21.618;2023-04-03T05:12:26;101236.03;;;17.62;46.97
78223;BME280;67497;53.058;21.618;2023-04-03T05:14:27;101236.88;;;17.63;47.03
78223;BME280;67497;53.058;21.618;2023-04-03T05:16:27;101245.38;;;17.61;46.89
78223;BME280;67497;53.058;21.618;2023-04-03T05:18:28;101235.16;;;17.62;46.88
78223;BME280;67497;53.058;21.618;2023-04-03T05:20:28;101240.72;;;17.62;46.89
78223;BME280;67497;53.058;21.618;2023-04-03T05:22:29;101237.25;;;17.60;47.04
78223;BME280;67497;53.058;21.618;2023-04-03T05:24:30;101237.25;;;17.60;46.79
78223;BME280;67497;53.058;21.618;2023-04-03T05:26:31;101242.81;;;17.60;47.10
78223;BME280;67497;53.058;21.618;2023-04-03T05:28:31;101248.34;;;17.60;46.91
78223;BME280;67497;53.058;21.618;2023-04-03T05:30:32;101248.50;;;17.58;46.95
78223;BME280;67497;53.058;21.618;2023-04-03T05:32:33;101249.53;;;17.57;46.67
78223;BME280;67497;53.058;21.618;2023-04-03T05:34:33;101249.91;;;17.54;46.84
78223;BME280;67497;53.058;21.618;2023-04-03T05:36:34;101253.53;;;17.55;46.66
78223;BME280;67497;53.058;21.618;2023-04-03T05:38:35;101256.28;;;17.55;46.93
78223;BME280;67497;53.058;21.618;2023-04-03T05:40:36;101251.94;;;17.52;46.68
78223;BME280;67497;53.058;21.618;2023-04-03T05:42:37;101255.59;;;17.53;47.01
78223;BME280;67497;53.058;21.618;2023-04-03T05:44:38;101257.34;;;17.54;46.65
78223;BME280;67497;53.058;21.618;2023-04-03T05:46:38;101253.72;;;17.53;46.68
78223;BME280;67497;53.058;21.618;2023-04-03T05:48:39;101260.13;;;17.54;46.72
78223;BME280;67497;53.058;21.618;2023-04-03T05:50:40;101256.63;;;17.52;46.65
78223;BME280;67497;53.058;21.618;2023-04-03T05:52:44;101259.75;;;17.49;46.71
78223;BME280;67497;53.058;21.618;2023-04-03T05:54:45;101255.25;;;17.48;46.73
78223;BME280;67497;53.058;21.618;2023-04-03T05:56:48;101274.84;;;17.54;46.83
78223;BME280;67497;53.058;21.618;2023-04-03T05:58:48;101264.78;;;17.53;46.95
78223;BME280;67497;53.058;21.618;2023-04-03T06:00:49;101264.59;;;17.55;46.86
78223;BME280;67497;53.058;21.618;2023-04-03T06:02:50;101259.06;;;17.55;46.80
78223;BME280;67497;53.058;21.618;2023-04-03T06:04:50;101264.09;;;17.59;46.92
78223;BME280;67497;53.058;21.618;2023-04-03T06:06:54;101275.69;;;17.63;46.72
78223;BME280;67497;53.058;21.618;2023-04-03T06:08:55;101264.25;;;17.66;46.31
78223;BME280;67497;53.058;21.618;2023-04-03T06:10:55;101272.19;;;17.77;46.38
78223;BME280;67497;53.058;21.618;2023-04-03T06:12:56;101263.16;;;17.91;46.04
78223;BME280;67497;53.058;21.618;2023-04-03T06:14:57;101259.34;;;17.92;45.86
78223;BME280;67497;53.058;21.618;2023-04-03T06:16:58;101259.47;;;17.99;45.62
78223;BME280;67497;53.058;21.618;2023-04-03T06:18:59;101271.22;;;18.09;45.57
78223;BME280;67497;53.058;21.618;2023-04-03T06:21:00;101264.44;;;18.19;47.21
78223;BME280;67497;53.058;21.618;2023-04-03T06:23:01;101260.06;;;18.25;47.16
78223;BME280;67497;53.058;21.618;2023-04-03T06:25:01;101263.16;;;18.38;47.73
78223;BME280;67497;53.058;21.618;2023-04-03T06:27:02;101261.91;;;18.48;47.58
78223;BME280;67497;53.058;21.618;2023-04-03T06:29:03;101261.50;;;18.60;49.53
78223;BME280;67497;53.058;21.618;2023-04-03T06:31:03;101262.13;;;18.70;53.97
78223;BME280;67497;53.058;21.618;2023-04-03T06:33:04;101265.66;;;18.86;52.60
78223;BME280;67497;53.058;21.618;2023-04-03T06:35:05;101268.50;;;19.01;53.36
78223;BME280;67497;53.058;21.618;2023-04-03T06:37:06;101267.53;;;19.17;53.01
78223;BME280;67497;53.058;21.618;2023-04-03T06:39:09;101272.44;;;19.29;52.35
78223;BME280;67497;53.058;21.618;2023-04-03T06:41:13;101276.94;;;19.38;53.26
78223;BME280;67497;53.058;21.618;2023-04-03T06:43:13;101276.53;;;19.41;52.63
78223;BME280;67497;53.058;21.618;2023-04-03T06:45:14;101272.38;;;19.37;52.66
78223;BME280;67497;53.058;21.618;2023-04-03T06:47:16;101283.56;;;19.29;52.23
78223;BME280;67497;53.058;21.618;2023-04-03T06:49:17;101299.94;;;19.24;51.92
78223;BME280;67497;53.058;21.618;2023-04-03T06:53:20;101294.81;;;19.13;51.43
78223;BME280;67497;53.058;21.618;2023-04-03T06:55:20;101284.44;;;19.07;51.49
78223;BME280;67497;53.058;21.618;2023-04-03T06:57:21;101289.69;;;19.02;51.01
78223;BME280;67497;53.058;21.618;2023-04-03T06:59:22;101302.47;;;19.11;50.92
78223;BME280;67497;53.058;21.618;2023-04-03T07:01:23;101303.31;;;19.11;50.66
78223;BME280;67497;53.058;21.618;2023-04-03T07:03:25;101292.03;;;19.13;50.24
78223;BME280;67497;53.058;21.618;2023-04-03T07:05:25;101307.63;;;19.14;49.86
78223;BME280;67497;53.058;21.618;2023-04-03T07:07:26;101305.91;;;19.13;49.80
78223;BME280;67497;53.058;21.618;2023-04-03T07:09:27;101301.03;;;19.15;49.38
78223;BME280;67497;53.058;21.618;2023-04-03T07:11:27;101301.03;;;19.15;49.16
78223;BME280;67497;53.058;21.618;2023-04-03T07:13:28;101312.81;;;19.17;49.03
78223;BME280;67497;53.058;21.618;2023-04-03T07:15:28;101312.44;;;19.20;48.89
78223;BME280;67497;53.058;21.618;2023-04-03T07:17:30;101310.75;;;19.19;48.67
78223;BME280;67497;53.058;21.618;2023-04-03T07:19:31;101303.09;;;19.21;48.43
78223;BME280;67497;53.058;21.618;2023-04-03T07:21:32;101309.69;;;19.20;48.36
78223;BME280;67497;53.058;21.618;2023-04-03T07:23:32;101308.06;;;19.26;48.09
78223;BME280;67497;53.058;21.618;2023-04-03T07:25:33;101293.56;;;19.16;48.05
78223;BME280;67497;53.058;21.618;2023-04-03T07:27:34;101306.16;;;19.26;47.84
78223;BME280;67497;53.058;21.618;2023-04-03T07:29:35;101308.56;;;19.29;47.47
78223;BME280;67497;53.058;21.618;2023-04-03T07:31:35;101316.34;;;19.34;47.35
78223;BME280;67497;53.058;21.618;2023-04-03T07:33:37;101309.53;;;19.36;47.13
78223;BME280;67497;53.058;21.618;2023-04-03T07:35:37;101314.78;;;19.39;47.07
78223;BME280;67497;53.058;21.618;2023-04-03T07:37:38;101318.91;;;19.43;46.89
78223;BME280;67497;53.058;21.618;2023-04-03T07:39:38;101306.19;;;19.49;47.31
78223;BME280;67497;53.058;21.618;2023-04-03T07:41:39;101317.91;;;19.59;48.12
78223;BME280;67497;53.058;21.618;2023-04-03T07:43:39;101307.75;;;19.66;48.62
78223;BME280;67497;53.058;21.618;2023-04-03T07:45:41;101323.91;;;19.85;48.80
78223;BME280;67497;53.058;21.618;2023-04-03T07:47:43;101314.59;;;19.93;50.20
78223;BME280;67497;53.058;21.618;2023-04-03T07:49:43;101313.69;;;20.00;51.00
78223;BME280;67497;53.058;21.618;2023-04-03T07:51:44;101322.09;;;20.07;50.74
78223;BME280;67497;53.058;21.618;2023-04-03T07:53:45;101318.28;;;20.08;50.43
78223;BME280;67497;53.058;21.618;2023-04-03T07:55:47;101318.09;;;20.09;49.59
78223;BME280;67497;53.058;21.618;2023-04-03T07:57:49;101324.72;;;20.08;49.67
78223;BME280;67497;53.058;21.618;2023-04-03T07:59:49;101323.84;;;20.08;49.20
78223;BME280;67497;53.058;21.618;2023-04-03T08:01:50;101333.22;;;20.07;48.40
78223;BME280;67497;53.058;21.618;2023-04-03T08:03:50;101324.22;;;20.05;48.14
78223;BME280;67497;53.058;21.618;2023-04-03T08:05:51;101322.09;;;20.07;47.92
78223;BME280;67497;53.058;21.618;2023-04-03T08:07:53;101306.28;;;20.07;47.55
78223;BME280;67497;53.058;21.618;2023-04-03T08:09:54;101313.09;;;20.05;46.97
78223;BME280;67497;53.058;21.618;2023-04-03T08:11:54;101318.75;;;20.11;46.69
78223;BME280;67497;53.058;21.618;2023-04-03T08:13:55;101313.00;;;20.13;46.71
78223;BME280;67497;53.058;21.618;2023-04-03T08:15:56;101315.13;;;20.11;46.52
78223;BME280;67497;53.058;21.618;2023-04-03T08:17:58;101317.53;;;20.14;46.51
78223;BME280;67497;53.058;21.618;2023-04-03T08:19:59;101322.22;;;20.13;46.04
78223;BME280;67497;53.058;21.618;2023-04-03T08:22:00;101321.63;;;20.18;45.56
78223;BME280;67497;53.058;21.618;2023-04-03T08:24:03;101322.69;;;20.17;46.49
78223;BME280;67497;53.058;21.618;2023-04-03T08:26:16;101331.91;;;20.17;46.78
78223;BME280;67497;53.058;21.618;2023-04-03T08:28:17;101319.06;;;20.16;47.15
78223;BME280;67497;53.058;21.618;2023-04-03T08:30:17;101322.31;;;20.20;47.79
78223;BME280;67497;53.058;21.618;2023-04-03T08:32:18;101330.97;;;20.25;48.29
78223;BME280;67497;53.058;21.618;2023-04-03T08:34:19;101326.47;;;20.24;48.23
78223;BME280;67497;53.058;21.618;2023-04-03T08:36:26;101335.50;;;20.26;48.96
78223;BME280;67497;53.058;21.618;2023-04-03T08:38:27;101331.34;;;20.22;48.62
78223;BME280;67497;53.058;21.618;2023-04-03T08:40:28;101331.34;;;20.22;48.72
78223;BME280;67497;53.058;21.618;2023-04-03T08:49:11;101318.00;;;20.17;47.87
78223;BME280;67497;53.058;21.618;2023-04-03T08:51:19;101324.81;;;20.15;47.72
78223;BME280;67497;53.058;21.618;2023-04-03T08:53:26;101330.75;;;20.12;46.44
78223;BME280;67497;53.058;21.618;2023-04-03T08:55:43;101326.25;;;20.11;46.36
78223;BME280;67497;53.058;21.618;2023-04-03T08:57:47;101328.16;;;20.10;46.49
78223;BME280;67497;53.058;21.618;2023-04-03T08:59:49;101332.19;;;20.08;46.54
78223;BME280;67497;53.058;21.618;2023-04-03T09:01:49;101330.66;;;20.05;46.04
78223;BME280;67497;53.058;21.618;2023-04-03T09:03:51;101346.47;;;20.05;45.82
78223;BME280;67497;53.058;21.618;2023-04-03T09:06:13;101343.03;;;20.03;45.62
78223;BME280;67497;53.058;21.618;2023-04-03T09:08:28;101338.88;;;19.99;45.50
78223;BME280;67497;53.058;21.618;2023-04-03T09:10:33;101330.16;;;20.02;45.14
78223;BME280;67497;53.058;21.618;2023-04-03T09:12:39;101338.22;;;19.97;44.34
78223;BME280;67497;53.058;21.618;2023-04-03T09:21:34;101337.56;;;19.95;44.08
78223;BME280;67497;53.058;21.618;2023-04-03T09:23:47;101351.47;;;19.95;43.70
78223;BME280;67497;53.058;21.618;2023-04-03T09:25:51;101334.94;;;19.93;43.57
78223;BME280;67497;53.058;21.618;2023-04-03T09:27:53;101342.03;;;19.96;43.71
78223;BME280;67497;53.058;21.618;2023-04-03T09:29:56;101338.00;;;19.98;43.38
78223;BME280;67497;53.058;21.618;2023-04-03T09:32:01;101325.84;;;19.99;43.75
78223;BME280;67497;53.058;21.618;2023-04-03T09:34:05;101341.28;;;20.02;43.32
78223;BME280;67497;53.058;21.618;2023-04-03T09:36:07;101346.84;;;20.02;43.12
78223;BME280;67497;53.058;21.618;2023-04-03T09:40:41;101346.47;;;20.05;43.33
78223;BME280;67497;53.058;21.618;2023-04-03T09:42:42;101339.56;;;20.01;43.10
78223;BME280;67497;53.058;21.618;2023-04-03T09:44:53;101321.16;;;20.00;43.43
78223;BME280;67497;53.058;21.618;2023-04-03T09:46:54;101333.53;;;19.97;43.67
78223;BME280;67497;53.058;21.618;2023-04-03T09:49:00;101340.13;;;19.96;43.72
78223;BME280;67497;53.058;21.618;2023-04-03T09:51:01;101326.59;;;19.93;44.07
78223;BME280;67497;53.058;21.618;2023-04-03T09:53:06;101347.31;;;19.91;43.95
78223;BME280;67497;53.058;21.618;2023-04-03T09:55:14;101335.03;;;19.85;43.85
78223;BME280;67497;53.058;21.618;2023-04-03T09:57:15;101347.09;;;19.78;43.74
78223;BME280;67497;53.058;21.618;2023-04-03T09:59:16;101346.59;;;19.74;43.81
78223;BME280;67497;53.058;21.618;2023-04-03T10:01:30;101348.03;;;19.70;44.02
78223;BME280;67497;53.058;21.618;2023-04-03T10:03:33;101340.25;;;19.65;44.20
78223;BME280;67497;53.058;21.618;2023-04-03T10:05:41;101347.53;;;19.66;44.38
78223;BME280;67497;53.058;21.618;2023-04-03T10:07:41;101343.59;;;19.61;44.22
78223;BME280;67497;53.058;21.618;2023-04-03T10:09:55;101347.25;;;19.61;44.04
78223;BME280;67497;53.058;21.618;2023-04-03T10:12:07;101347.63;;;19.58;44.33
78223;BME280;67497;53.058;21.618;2023-04-03T10:14:16;101359.41;;;19.60;43.91
78223;BME280;67497;53.058;21.618;2023-04-03T10:16:25;101343.09;;;19.57;44.03
78223;BME280;67497;53.058;21.618;2023-04-03T10:18:47;101356.81;;;19.59;43.69
78223;BME280;67497;53.058;21.618;2023-04-03T10:20:50;101339.28;;;19.58;43.75
78223;BME280;67497;53.058;21.618;2023-04-03T10:26:02;101349.16;;;19.61;43.02
78223;BME280;67497;53.058;21.618;2023-04-03T10:35:45;101333.78;;;19.73;41.29
78223;BME280;67497;53.058;21.618;2023-04-03T10:38:08;101332.69;;;19.74;41.20
78223;BME280;67497;53.058;21.618;2023-04-03T10:42:49;101326.25;;;19.74;41.16
78223;BME280;67497;53.058;21.618;2023-04-03T10:47:22;101317.91;;;19.74;40.85
78223;BME280;67497;53.058;21.618;2023-04-03T10:54:13;101325.44;;;19.73;40.49
78223;BME280;67497;53.058;21.618;2023-04-03T10:58:36;101311.31;;;19.75;40.16
78223;BME280;67497;53.058;21.618;2023-04-03T11:00:42;101312.19;;;19.75;40.33
78223;BME280;67497;53.058;21.618;2023-04-03T11:02:58;101307.66;;;19.74;40.05
78223;BME280;67497;53.058;21.618;2023-04-03T11:05:05;101305.97;;;19.73;40.20
78223;BME280;67497;53.058;21.618;2023-04-03T11:07:32;101310.44;;;19.74;40.25
78223;BME280;67497;53.058;21.618;2023-04-03T11:09:39;101296.75;;;19.73;40.47
78223;BME280;67497;53.058;21.618;2023-04-03T11:11:41;101308.03;;;19.71;40.61
78223;BME280;67497;53.058;21.618;2023-04-03T11:13:49;101309.59;;;19.74;40.66
78223;BME280;67497;53.058;21.618;2023-04-03T11:15:51;101304.88;;;19.74;40.94
78223;BME280;67497;53.058;21.618;2023-04-03T11:18:04;101292.91;;;19.74;40.90